Tiempo atmosférico en la estación meteorológica de Salas, Asturias (240 m.)



Fecha
DESCASC
Temp. máxima en grados centígrados (hora)
DESCASC
Temp. mínima en grados centígrados (hora)
DESCASC
Temp. media en grados centígrados
DESCASC
Racha de viento máxima en m/sg (hora)
DESCASC
Velocidad máxima media en intervalos de 10 minutos(hora)
DESCASC
Precipitaciones diarias en mm
DESCASC
Precipitaciones de 00:00 a 06:00 en mm
DESCASC
Precipitaciones de 06:00 a 12:00 en mm
DESCASC
Precipitaciones de 12:00 a 18:00 en mm
DESCASC
Precipitaciones de 18:00 a 24:00 en mm
DESCASC

Gráficas

Temp. máximas Temp. mínimas Temp. medias Precipitaciones Rachas de viento máximas Velocidades máximas media en intervalos de 10 minutos

Datos horarios

Fecha y hora oficial Temperatura (ºC) Velocidad del viento (km/h) Dirección del viento Racha (km/h) Dirección de racha Precipitación (mm) Presión (hPa) Tendencia (hPa) Humedad (%)
2019-12-10 23:00:00 15.8 21 Oeste 44 Oeste 0 -- -- 49
2019-12-10 22:00:00 16 18 Sudoeste 39 Noroeste 0 -- -- 42
2019-12-10 21:00:00 14.9 18 Oeste 33 Oeste 0 -- -- 38
2019-12-10 20:00:00 10.3 6 Sudoeste 22 Oeste 0 -- -- 70
2019-12-10 19:00:00 9.7 4 Sudoeste 12 Sur 0 -- -- 85
2019-12-10 18:00:00 10 4 Nordeste 11 Norte 0 -- -- 82
2019-12-10 17:00:00 10.8 0 Calma 5 Noroeste 0 -- -- 89
2019-12-10 16:00:00 10.9 2 Sur 5 Sur 0 -- -- 87
2019-12-10 15:00:00 11.2 2 Nordeste 4 Sur 0 -- -- 87
2019-12-10 14:00:00 10.8 0 Calma 4 Este 0 -- -- 90
2019-12-10 13:00:00 9.6 0 Calma 5 Noroeste 0 -- -- 89
2019-12-10 12:00:00 8.6 2 Sudeste 5 Sudoeste 0 -- -- 91
2019-12-10 11:00:00 5.6 0 Calma 6 Nordeste 0 -- -- 97
2019-12-10 10:00:00 4 2 Norte 5 Oeste 0 -- -- 94
2019-12-10 09:00:00 3.2 0 Calma 4 Noroeste 0 -- -- 92
2019-12-10 08:00:00 2.8 2 Oeste 6 Oeste 0 -- -- 95
2019-12-10 07:00:00 2.5 0 Calma 4 Sudeste 0 -- -- 96
2019-12-10 06:00:00 2.7 2 Sudoeste 6 Oeste 0 -- -- 93
2019-12-10 05:00:00 3.4 3 Oeste 7 Oeste 0 -- -- 93
2019-12-10 04:00:00 3.5 2 Oeste 6 Sudoeste 0 -- -- 94
2019-12-10 03:00:00 3.9 0 Calma 4 Sudoeste 0 -- -- 96
2019-12-10 02:00:00 3.8 2 Oeste 5 Sudoeste 0 -- -- 96
2019-12-10 01:00:00 4.3 0 Calma 4 Nordeste 0 -- -- 96
2019-12-10 00:00:00 4.9 0 Calma 6 Sur 0 -- -- 94
2019-12-09 23:00:00 5.6 0 Calma 5 Sudoeste 0 -- -- 91
2019-12-09 22:00:00 6.4 3 Oeste 9 Oeste 0 -- -- 93
2019-12-09 21:00:00 7 0 Calma 5 Nordeste 0 -- -- 92
2019-12-09 20:00:00 8 0 Calma 7 Nordeste 0 -- -- 90
2019-12-09 19:00:00 9 3 Oeste 12 Oeste 0 -- -- 88
2019-12-09 18:00:00 10.5 7 Noroeste 12 Noroeste 0 -- -- 82
2019-12-09 17:00:00 12.1 3 Oeste 14 Oeste 0 -- -- 78
2019-12-09 16:00:00 12.8 6 Sudoeste 18 Sudoeste 0 -- -- 69
2019-12-09 15:00:00 12.9 5 Oeste 18 Oeste 0 -- -- 70
2019-12-09 14:00:00 12.7 9 Oeste 18 Oeste 0 -- -- 71
2019-12-09 13:00:00 12.5 8 Sudoeste 23 Oeste 0 -- -- 71
2019-12-09 12:00:00 11.7 15 Oeste 28 Oeste 0 -- -- 71
2019-12-09 11:00:00 11.2 16 Sudoeste 31 Sudoeste 0 -- -- 69
2019-12-09 10:00:00 10.2 12 Sudoeste 21 Sudoeste 0 -- -- 71
2019-12-09 09:00:00 9.9 14 Sudoeste 30 Sudoeste 0 -- -- 72
2019-12-09 08:00:00 9.5 12 Oeste 22 Oeste 0 -- -- 72
2019-12-09 07:00:00 8.4 9 Sur 15 Sur 0 -- -- 74
2019-12-09 06:00:00 7.3 5 Nordeste 9 Nordeste 0 -- -- 76
2019-12-09 05:00:00 6.6 0 Calma 11 Nordeste 0 -- -- 78
2019-12-09 04:00:00 6.8 4 Nordeste 14 Nordeste 0 -- -- 77
2019-12-09 03:00:00 7.2 3 Norte 8 Nordeste 0 -- -- 75
2019-12-09 02:00:00 7.2 3 Norte 24 Sudoeste 0 -- -- 76
2019-12-09 01:00:00 7.9 14 Sudoeste 24 Sudoeste 0 -- -- 78
2019-12-09 00:00:00 8.1 3 Nordeste 10 Norte 0 -- -- 80
2019-12-08 23:00:00 8.2 3 Sudeste 8 Nordeste 0 -- -- 87
2019-12-08 22:00:00 9.7 6 Sudoeste 34 Oeste 0 -- -- 85
2019-12-08 21:00:00 10.1 15 Oeste 31 Oeste 0 -- -- 87
2019-12-08 20:00:00 10.3 12 Oeste 27 Oeste 0 -- -- 86
2019-12-08 19:00:00 10.6 11 Sudoeste 24 Oeste 0 -- -- 87
2019-12-08 18:00:00 11 10 Oeste 30 Oeste 0 -- -- 88
2019-12-08 17:00:00 11.6 12 Oeste 29 Oeste 0 -- -- 88
2019-12-08 16:00:00 13.1 7 Noroeste 20 Nordeste 0 -- -- 87
2019-12-08 15:00:00 13 6 Sudoeste 30 Noroeste 0 -- -- 90
2019-12-08 14:00:00 14 9 Oeste 24 Oeste 0.2 -- -- 90
2019-12-08 13:00:00 14.4 9 Oeste 13 Oeste 0.6 -- -- 96
2019-12-08 12:00:00 14.5 6 Oeste 17 Sudoeste 0.4 -- -- 96
2019-12-08 11:00:00 14 7 Oeste 25 Oeste 2.6 -- -- 97
2019-12-08 10:00:00 14.1 11 Sudoeste 33 Oeste 2 -- -- 92
2019-12-08 09:00:00 14.4 17 Oeste 35 Oeste 1.6 -- -- 87
2019-12-08 08:00:00 15.2 9 Sudoeste 29 Oeste 0 -- -- 82
2019-12-08 07:00:00 15.5 12 Sudoeste 26 Sudoeste 0 -- -- 77
2019-12-08 06:00:00 15.4 10 Sudoeste 26 Sudoeste 0 -- -- 78
2019-12-08 05:00:00 14.3 4 Este 10 Oeste 0 -- -- 83
2019-12-08 04:00:00 13.3 3 Este 8 Nordeste 0 -- -- 86
2019-12-08 03:00:00 11.5 2 Oeste 10 Oeste 0 -- -- 92
2019-12-08 02:00:00 11.1 3 Sudeste 9 Sur 0 -- -- 89
2019-12-08 01:00:00 11.3 2 Nordeste 7 Norte 0 -- -- 90
2019-12-08 00:00:00 10.4 3 Norte 6 Noroeste 0 -- -- 93
2019-12-07 23:00:00 9.9 0 Calma 5 Oeste 0 -- -- 93
2019-12-07 22:00:00 10.8 2 Oeste 4 Oeste 0 -- -- 91
2019-12-07 21:00:00 11.4 0 Calma 4 Sudeste 0 -- -- 94
2019-12-07 20:00:00 11.6 0 Calma 5 Sudoeste 0 -- -- 94
2019-12-07 19:00:00 11.9 3 Este 6 Norte 0 -- -- 90
2019-12-07 18:00:00 13.3 0 Calma 4 Noroeste 0 -- -- 85
2019-12-07 17:00:00 15.2 0 Calma 5 Noroeste 0 -- -- 80
2019-12-07 16:00:00 16.4 3 Sudeste 7 Sur 0 -- -- 71
2019-12-07 15:00:00 14.8 2 Sur 4 Oeste 0 -- -- 74
2019-12-07 14:00:00 14.1 2 Sudeste 5 Sudoeste 0 -- -- 75
2019-12-07 13:00:00 13.1 0 Calma 5 Sur 0 -- -- 77
2019-12-07 12:00:00 11.6 2 Sur 5 Sudeste 0 -- -- 80
2019-12-07 11:00:00 8.4 2 Oeste 4 Noroeste 0 -- -- 93
2019-12-07 10:00:00 7.5 2 Este 6 Oeste 0 -- -- 94
2019-12-07 09:00:00 7.8 0 Calma 4 Nordeste 0 -- -- 94
2019-12-07 08:00:00 7.4 2 Oeste 5 Sudoeste 0 -- -- 94
2019-12-07 07:00:00 6.5 0 Calma 3 Norte 0 -- -- 97
2019-12-07 06:00:00 7.4 3 Este 5 Noroeste 0 -- -- 96
2019-12-07 05:00:00 7.1 0 Calma 4 Nordeste 0 -- -- 100
2019-12-07 04:00:00 6.8 0 Calma 3 Sudoeste 0 -- -- 100
2019-12-07 03:00:00 6.5 0 Calma 2 Sur 0 -- -- 100
2019-12-07 02:00:00 6.8 0 Calma 4 Sur 0 -- -- 100
2019-12-07 01:00:00 6.6 0 Calma 6 Nordeste 0 -- -- 100
2019-12-07 00:00:00 5.9 0 Calma 4 Nordeste 0 -- -- 100
2019-12-06 23:00:00 5.9 0 Calma 4 Sudoeste 0 -- -- 99
2019-12-06 22:00:00 6.3 0 Calma 6 Sudoeste 0 -- -- 98
2019-12-06 21:00:00 7 2 Noroeste 5 Oeste 0 -- -- 97
2019-12-06 20:00:00 7.3 4 Oeste 8 Oeste 0 -- -- 97
2019-12-06 19:00:00 8.2 0 Calma 4 Nordeste 0 -- -- 96
2019-12-06 18:00:00 9.4 0 Calma 5 Sur 0 -- -- 91
2019-12-06 17:00:00 12.4 4 Sudeste 11 Norte 0 -- -- 82
2019-12-06 16:00:00 12.6 2 Este 6 Sur 0 -- -- 82
2019-12-06 15:00:00 11.9 2 Sudeste 7 Sudeste 0 -- -- 82
2019-12-06 14:00:00 12.3 3 Sur 9 Oeste 0 -- -- 83
2019-12-06 13:00:00 10.6 3 Este 10 Sur 0 -- -- 86
2019-12-06 12:00:00 8.9 3 Este 7 Nordeste 0 -- -- 92
2019-12-06 11:00:00 8 0 Calma 7 Oeste 0 -- -- 96
2019-12-06 10:00:00 6.6 4 Oeste 6 Oeste 0 -- -- 97
2019-12-06 09:00:00 6 3 Oeste 9 Oeste 0 -- -- 97
2019-12-06 08:00:00 6.1 0 Calma 9 Oeste 0 -- -- 97
2019-12-06 07:00:00 5.7 2 Oeste 5 Oeste 0 -- -- 99
2019-12-06 06:00:00 6 2 Oeste 7 Sudoeste 0 -- -- 97
2019-12-06 05:00:00 6.6 4 Oeste 8 Sudoeste 0 -- -- 99
2019-12-06 04:00:00 6.9 0 Calma 8 Noroeste 0 -- -- 98
2019-12-06 03:00:00 8 2 Noroeste 5 Nordeste 0 -- -- 100
2019-12-06 02:00:00 8.3 0 Calma 7 Oeste 0 -- -- 100
2019-12-06 01:00:00 8.2 2 Sudeste 5 Norte 0 -- -- 100
2019-12-06 00:00:00 8.3 0 Calma 4 Sur 0 -- -- 100
2019-12-05 23:00:00 8.2 0 Calma 4 Noroeste 0 -- -- 100
2019-12-05 22:00:00 8 0 Calma 5 Nordeste 0 -- -- 99
2019-12-05 21:00:00 8.4 0 Calma 5 Sudeste 0 -- -- 98
2019-12-05 20:00:00 8.6 3 Sudoeste 6 Nordeste 0 -- -- 98
2019-12-05 19:00:00 8.6 2 Sudoeste 5 Nordeste 0 -- -- 98
2019-12-05 18:00:00 8.8 0 Calma 10 Nordeste 0 -- -- 95
2019-12-05 17:00:00 10.4 4 Este 12 Norte 0 -- -- 93
2019-12-05 16:00:00 10.6 7 Norte 13 Norte 0 -- -- 92
2019-12-05 15:00:00 10.5 4 Nordeste 16 Norte 0 -- -- 91
2019-12-05 14:00:00 10.5 8 Norte 14 Nordeste 0 -- -- 91
2019-12-05 13:00:00 9.8 2 Oeste 7 Nordeste 0 -- -- 97
2019-12-05 12:00:00 8.1 0 Calma 4 Sur 0 -- -- 100
2019-12-05 11:00:00 7.2 0 Calma 4 Este 0.2 -- -- 100
2019-12-05 10:00:00 6.2 0 Calma 3 Sudoeste 0 -- -- 100
2019-12-05 09:00:00 6 0 Calma 5 Nordeste 0 -- -- 100
2019-12-05 08:00:00 5.9 0 Calma 4 Oeste 0 -- -- 100
2019-12-05 07:00:00 5.8 2 Este 4 Sudeste 0.2 -- -- 100
2019-12-05 06:00:00 5.7 0 Calma 6 Oeste 0 -- -- 99
2019-12-05 05:00:00 5.5 3 Oeste 5 Oeste 0.4 -- -- 98
2019-12-05 04:00:00 5.8 2 Oeste 5 Norte 0 -- -- 97
2019-12-05 03:00:00 5.6 0 Calma 7 Sudoeste 0 -- -- 95
2019-12-05 02:00:00 5.6 0 Calma 7 Oeste 0 -- -- 97
2019-12-05 01:00:00 5.6 3 Sudoeste 6 Oeste 0 -- -- 97
2019-12-05 00:00:00 5.5 0 Calma 9 Noroeste 0 -- -- 97
2019-12-04 23:00:00 5.3 4 Oeste 7 Noroeste 0 -- -- 99
2019-12-04 22:00:00 4.8 0 Calma 5 Sudoeste 0 -- -- 98
2019-12-04 21:00:00 4.5 0 Calma 5 Oeste 0 -- -- 98
2019-12-04 20:00:00 5.1 2 Sur 6 Nordeste 0 -- -- 94
2019-12-04 19:00:00 5.9 0 Calma 4 Norte 0 -- -- 92
2019-12-04 18:00:00 7.5 0 Calma 6 Noroeste 0 -- -- 86
2019-12-04 17:00:00 10 4 Norte 10 Nordeste 0 -- -- 75
2019-12-04 16:00:00 10.6 4 Nordeste 15 Norte 0 -- -- 73
2019-12-04 15:00:00 11.1 10 Nordeste 15 Nordeste 0 -- -- 72
2019-12-04 14:00:00 10.5 4 Sudeste 6 Este 0 -- -- 72
2019-12-04 13:00:00 9.5 3 Sur 5 Sur 0 -- -- 76
2019-12-04 12:00:00 6.6 3 Sur 6 Sur 0 -- -- 82
2019-12-04 11:00:00 4.1 2 Sudoeste 6 Sudoeste 0 -- -- 90
2019-12-04 10:00:00 1.3 3 Sudoeste 7 Oeste 0 -- -- 99
2019-12-04 09:00:00 -0.7 0 Calma 6 Oeste 0 -- -- 98
2019-12-04 08:00:00 -0.7 0 Calma 3 Oeste 0 -- -- 98
2019-12-04 07:00:00 -0.1 3 Oeste 6 Oeste 0 -- -- 98
2019-12-04 06:00:00 0 3 Oeste 6 Noroeste 0 -- -- 99
2019-12-04 05:00:00 -0.2 2 Norte 5 Oeste 0 -- -- 99
2019-12-04 04:00:00 0.1 0 Calma 4 Sudoeste 0 -- -- 99
2019-12-04 03:00:00 0.9 2 Oeste 6 Oeste 0 -- -- 100
2019-12-04 02:00:00 0.6 0 Calma 5 Oeste 0 -- -- 99
2019-12-04 01:00:00 1 0 Calma 3 Sudoeste 0 -- -- 99
2019-12-04 00:00:00 1.1 3 Este 6 Nordeste 0 -- -- 98
2019-12-03 23:00:00 1.9 0 Calma 6 Este 0 -- -- 97
2019-12-03 22:00:00 2.8 2 Sudoeste 5 Nordeste 0 -- -- 96
2019-12-03 21:00:00 2.9 0 Calma 6 Nordeste 0 -- -- 96
2019-12-03 20:00:00 3.3 2 Norte 5 Nordeste 0 -- -- 91
2019-12-03 19:00:00 5 2 Este 20 Norte 0 -- -- 87
2019-12-03 18:00:00 6.3 10 Norte 18 Nordeste 0 -- -- 83
2019-12-03 17:00:00 8.4 7 Nordeste 17 Nordeste 0 -- -- 75
2019-12-03 16:00:00 9.5 10 Nordeste 19 Este 0 -- -- 70
2019-12-03 15:00:00 8.8 10 Nordeste 22 Nordeste 0 -- -- 72
2019-12-03 14:00:00 8.9 15 Nordeste 21 Nordeste 0 -- -- 73
2019-12-03 13:00:00 8.9 8 Este 19 Nordeste 0 -- -- 70
2019-12-03 12:00:00 8.2 10 Este 28 Este 0 -- -- 76
2019-12-03 11:00:00 8.5 9 Sudeste 18 Sudeste 0 -- -- 79
2019-12-03 10:00:00 5.7 3 Este 7 Nordeste 0 -- -- 92
2019-12-03 09:00:00 4 3 Este 7 Nordeste 0 -- -- 93
2019-12-03 08:00:00 4.4 2 Noroeste 10 Nordeste 0 -- -- 91
2019-12-03 07:00:00 5 2 Sur 14 Este 0 -- -- 88
2019-12-03 06:00:00 5.5 3 Este 9 Este 0 -- -- 89
2019-12-03 05:00:00 5.3 4 Nordeste 11 Nordeste 0 -- -- 90
2019-12-03 04:00:00 4.7 5 Nordeste 12 Nordeste 0 -- -- 92
2019-12-03 03:00:00 5.2 3 Norte 6 Norte 0 -- -- 92
2019-12-03 02:00:00 5.3 2 Oeste 16 Sudeste 0 -- -- 90
2019-12-03 01:00:00 6.3 5 Este 14 Nordeste 0 -- -- 86
2019-12-03 00:00:00 6.9 8 Nordeste 16 Nordeste 0 -- -- 82
2019-12-02 23:00:00 6.6 4 Este 10 Este 0 -- -- 86
2019-12-02 22:00:00 6.7 0 Calma 15 Nordeste 0 -- -- 85
2019-12-02 21:00:00 7.4 9 Nordeste 19 Nordeste 0 -- -- 81
2019-12-02 20:00:00 7.4 13 Nordeste 24 Nordeste 0 -- -- 82
2019-12-02 19:00:00 7.6 14 Nordeste 24 Nordeste 0 -- -- 83
2019-12-02 18:00:00 8 15 Nordeste 27 Este 0 -- -- 83
2019-12-02 17:00:00 8.3 14 Nordeste 34 Nordeste 0 -- -- 86
2019-12-02 16:00:00 8.6 18 Nordeste 36 Nordeste 0 -- -- 86
2019-12-02 15:00:00 8.6 20 Nordeste 31 Norte 0.2 -- -- 89
2019-12-02 14:00:00 8.3 15 Nordeste 26 Norte 0.2 -- -- 89
2019-12-02 13:00:00 8.4 13 Nordeste 28 Nordeste 0 -- -- 86
2019-12-02 12:00:00 8.5 15 Nordeste 32 Nordeste 0 -- -- 88
2019-12-02 11:00:00 8.7 14 Nordeste 27 Nordeste 0 -- -- 92
2019-12-02 10:00:00 8.5 13 Nordeste 27 Nordeste 0 -- -- 94
2019-12-02 09:00:00 8.3 15 Nordeste 31 Nordeste 2.4 -- -- 98
2019-12-02 08:00:00 7.5 6 Nordeste 15 Norte 4.8 -- -- 100
2019-12-02 07:00:00 7 0 Calma 4 Nordeste 1 -- -- 100
2019-12-02 06:00:00 6.9 0 Calma 3 Oeste 0.6 -- -- 100
2019-12-02 05:00:00 6.7 0 Calma 5 Este 0 -- -- 100
2019-12-02 04:00:00 7 0 Calma 5 Oeste 0.4 -- -- 100
2019-12-02 03:00:00 7.1 2 Sudoeste 4 Oeste 1.4 -- -- 100
2019-12-02 02:00:00 7.2 4 Oeste 9 Noroeste 0.6 -- -- 99
2019-12-02 01:00:00 7.3 3 Nordeste 16 Noroeste 1.8 -- -- 98
2019-12-02 00:00:00 7.3 7 Noroeste 11 Noroeste 1.4 -- -- 96
2019-12-01 23:00:00 7.4 3 Norte 8 Noroeste 1.6 -- -- 97
2019-12-01 22:00:00 7.6 3 Noroeste 9 Norte 1 -- -- 95
2019-12-01 21:00:00 7.6 3 Oeste 26 Nordeste 1.6 -- -- 93
2019-12-01 20:00:00 8.2 3 Noroeste 10 Nordeste 2.6 -- -- 94
2019-12-01 19:00:00 8.3 2 Oeste 13 Nordeste 0.8 -- -- 95
2019-12-01 18:00:00 8.6 5 Nordeste 27 Norte 0.8 -- -- 95
2019-12-01 17:00:00 9.4 14 Nordeste 25 Nordeste 4 -- -- 95
2019-12-01 16:00:00 10.2 4 Noroeste 9 Noroeste 0.6 -- -- 92
2019-12-01 15:00:00 10.7 4 Sur 8 Sur 0 -- -- 88
2019-12-01 14:00:00 9.6 4 Sur 8 Oeste 0.2 -- -- 96
2019-12-01 13:00:00 8.8 3 Norte 15 Noroeste 2 -- -- 97
2019-12-01 12:00:00 8.7 6 Noroeste 14 Oeste 2.6 -- -- 96
2019-12-01 11:00:00 8.1 6 Noroeste 12 Oeste 3.8 -- -- 100
2019-12-01 10:00:00 7.3 3 Nordeste 6 Sudoeste 2 -- -- 100
2019-12-01 09:00:00 7.1 0 Calma 5 Oeste 0.4 -- -- --
2019-12-01 08:00:00 6.9 0 Calma 4 Oeste 0 -- -- 99
2019-12-01 07:00:00 7 0 Calma 5 Noroeste 0 -- -- 99
2019-12-01 06:00:00 7 0 Calma 7 Oeste 0.2 -- -- 98
2019-12-01 05:00:00 7.3 4 Norte 6 Nordeste 0.6 -- -- 97
2019-12-01 04:00:00 7.3 0 Calma 6 Oeste 0 -- -- 96
2019-12-01 03:00:00 7.6 3 Oeste 9 Nordeste 0 -- -- 94
2019-12-01 02:00:00 7.5 3 Nordeste 9 Oeste 0 -- -- 92
2019-12-01 01:00:00 7.5 6 Oeste 11 Sudoeste 0 -- -- 91
2019-12-01 00:00:00 7.5 2 Sudeste 9 Oeste 0 -- -- 88
2019-11-30 23:00:00 8.4 3 Nordeste 13 Noroeste 0 -- -- 85
2019-11-30 22:00:00 9 7 Sudoeste 18 Oeste 0 -- -- 81
2019-11-30 21:00:00 8.4 2 Oeste 8 Sudoeste 0 -- -- 82
2019-11-30 20:00:00 10.2 5 Sur 31 Sudoeste 0 -- -- 74
2019-11-30 19:00:00 10 13 Sudoeste 23 Sudoeste 0 -- -- 74
2019-11-30 18:00:00 10.1 9 Sudoeste 27 Sudoeste 0 -- -- 76
2019-11-30 17:00:00 10.3 22 Oeste 38 Oeste 0.8 -- -- 75
2019-11-30 16:00:00 12.3 8 Sudoeste 38 Oeste 0.4 -- -- 74
2019-11-30 15:00:00 12.3 16 Oeste 48 Sudoeste 0.2 -- -- 73
2019-11-30 14:00:00 15.4 15 Sudoeste 44 Sudoeste 0 -- -- 56
2019-11-30 13:00:00 14.8 11 Sudoeste 28 Sudoeste 0 -- -- 63
2019-11-30 12:00:00 13 11 Sudoeste 39 Oeste 0 -- -- 70
2019-11-30 11:00:00 11.7 25 Oeste 62 Oeste 0 -- -- 75
2019-11-30 10:00:00 10.1 6 Sudoeste 19 Oeste 0 -- -- 98
2019-11-30 09:00:00 9.9 3 Oeste 11 Sur 0.8 -- -- 98
2019-11-30 08:00:00 10.1 8 Sur 31 Oeste 5.2 -- -- 94
2019-11-30 07:00:00 12.5 9 Norte 24 Oeste 0 -- -- 89
2019-11-30 06:00:00 11.4 2 Norte 9 Sudoeste 0.8 -- -- 100
2019-11-30 05:00:00 10.6 4 Oeste 14 Sudoeste 0.6 -- -- 99
2019-11-30 04:00:00 10.8 5 Sudoeste 10 Oeste 0.2 -- -- 95
2019-11-30 03:00:00 9.4 4 Norte 10 Noroeste 0.2 -- -- 98
2019-11-30 02:00:00 8.8 3 Sudeste 6 Noroeste 0 -- -- 97
2019-11-30 01:00:00 8.5 0 Calma 9 Sur 0 -- -- 99
2019-11-30 00:00:00 8.3 3 Este 6 Este 0 -- -- 99
2019-11-29 23:00:00 8.2 3 Norte 6 Nordeste 0 -- -- 98
2019-11-29 22:00:00 8.3 3 Sudoeste 6 Oeste 0 -- -- 97
2019-11-29 21:00:00 8.9 2 Norte 5 Norte 0 -- -- 95
2019-11-29 20:00:00 9.2 0 Calma 5 Este 0 -- -- 93
2019-11-29 19:00:00 10.1 0 Calma 6 Norte 0 -- -- 89
2019-11-29 18:00:00 11.8 3 Norte 14 Norte 0 -- -- 84
2019-11-29 17:00:00 14.3 9 Norte 13 Norte 0 -- -- 78
2019-11-29 16:00:00 16.3 4 Sur 10 Sur 0 -- -- 72
2019-11-29 15:00:00 16.7 6 Sudeste 12 Sur 0 -- -- 74
2019-11-29 14:00:00 16.1 5 Sur 9 Sur 0 -- -- 76
2019-11-29 13:00:00 14.5 0 Calma 5 Sudeste 0 -- -- 82
2019-11-29 12:00:00 11.7 0 Calma 6 Sur 0 -- -- 94
2019-11-29 11:00:00 10.1 3 Sur 6 Sudoeste 0 -- -- 97
2019-11-29 10:00:00 9 3 Sudoeste 7 Sudoeste 0 -- -- 100
2019-11-29 09:00:00 7.8 2 Oeste 9 Oeste 0 -- -- 100
2019-11-29 08:00:00 8.2 3 Oeste 7 Noroeste 0 -- -- 100
2019-11-29 07:00:00 8 4 Oeste 10 Oeste 0 -- -- 100
2019-11-29 06:00:00 8.4 3 Oeste 5 Oeste 0 -- -- 100
2019-11-29 05:00:00 9.1 0 Calma 5 Noroeste 0 -- -- 100
2019-11-29 04:00:00 9.4 0 Calma 3 Noroeste 0 -- -- 100
2019-11-29 03:00:00 9.6 2 Sudeste 4 Oeste 0 -- -- 99
2019-11-29 02:00:00 9.9 2 Sur 6 Noroeste 0 -- -- 98
2019-11-29 01:00:00 10.3 0 Calma 8 Norte 0 -- -- 97
2019-11-29 00:00:00 10.6 3 Noroeste 16 Noroeste 0 -- -- 97
2019-11-28 23:00:00 11.9 5 Este 13 Nordeste 0 -- -- 95
2019-11-28 22:00:00 12.3 6 Norte 12 Norte 0.8 -- -- 98
2019-11-28 21:00:00 12.8 9 Norte 23 Oeste 0.6 -- -- 98
2019-11-28 20:00:00 12.4 3 Sudoeste 15 Oeste 1.2 -- -- 98
2019-11-28 19:00:00 12.2 3 Norte 20 Sudoeste 0.8 -- -- 96
2019-11-28 18:00:00 11.6 4 Sudeste 13 Oeste 1.6 -- -- 98
2019-11-28 17:00:00 11.5 7 Sur 11 Sudoeste 1.2 -- -- 98
2019-11-28 16:00:00 12 2 Oeste 13 Oeste 0.8 -- -- 96
2019-11-28 15:00:00 12.1 4 Oeste 10 Oeste 0.6 -- -- 91
2019-11-28 14:00:00 12.2 2 Sur 10 Sudeste 0.2 -- -- 93
2019-11-28 13:00:00 12.5 4 Sudeste 7 Sudeste 0 -- -- 90
2019-11-28 12:00:00 12.4 0 Calma 9 Sudeste 0 -- -- 90
2019-11-28 11:00:00 12.6 6 Este 13 Este 0 -- -- 86
2019-11-28 10:00:00 12.7 3 Norte 7 Sudoeste 0 -- -- 84
2019-11-28 09:00:00 13 2 Norte 17 Oeste 0 -- -- 82
2019-11-28 08:00:00 12.4 5 Oeste 11 Oeste 0 -- -- 84
2019-11-28 07:00:00 12.3 5 Noroeste 10 Noroeste 0 -- -- 83
2019-11-28 06:00:00 12.9 5 Oeste 16 Oeste 0 -- -- 80
2019-11-28 05:00:00 13.4 9 Oeste 32 Oeste 0 -- -- 77
2019-11-28 04:00:00 13.7 14 Oeste 27 Oeste 0 -- -- 76
2019-11-28 03:00:00 13.6 13 Oeste 31 Noroeste 0 -- -- 73
2019-11-28 02:00:00 13.8 13 Oeste 37 Oeste 0 -- -- 72
2019-11-28 01:00:00 13.6 16 Oeste 30 Oeste 0 -- -- 75
2019-11-28 00:00:00 12.7 10 Oeste 23 Oeste 0 -- -- 76
2019-11-27 23:00:00 12.6 6 Sudoeste 19 Sudoeste 0 -- -- 76
2019-11-27 22:00:00 11.8 5 Sudoeste 13 Sudoeste 0 -- -- 81
2019-11-27 21:00:00 12.2 8 Sudoeste 18 Sudoeste 0 -- -- 80
2019-11-27 20:00:00 12.6 12 Sudoeste 40 Oeste 0 -- -- 76
2019-11-27 19:00:00 13 14 Sudoeste 31 Oeste 0 -- -- 70
2019-11-27 18:00:00 12.7 12 Sudoeste 22 Sudoeste 0 -- -- 72
2019-11-27 17:00:00 13.2 10 Sudoeste 29 Oeste 0 -- -- 68
2019-11-27 16:00:00 12.4 17 Sudoeste 31 Oeste 0 -- -- 78
2019-11-27 15:00:00 12.7 19 Oeste 36 Oeste 0.2 -- -- 72
2019-11-27 14:00:00 14.2 14 Sur 29 Sur 0 -- -- 71
2019-11-27 06:00:00 -- -- -- -- -- -- -- -- --
2019-11-27 05:00:00 12.8 20 Oeste 49 Oeste 0 -- -- 66
2019-11-27 04:00:00 12.9 18 Sudoeste 44 Noroeste 0 -- -- 63
2019-11-27 03:00:00 12.2 12 Oeste 46 Oeste 0 -- -- 74
2019-11-27 02:00:00 12.5 17 Oeste 38 Oeste 0 -- -- 70
2019-11-27 01:00:00 12 19 Sudoeste 46 Oeste 0 -- -- 72
2019-11-27 00:00:00 12.2 21 Sudoeste 42 Sudoeste 0 -- -- 67
2019-11-26 23:00:00 12.5 18 Sudoeste 54 Oeste 0.2 -- -- 62
2019-11-26 22:00:00 12 21 Oeste 44 Oeste 0 -- -- 73
2019-11-26 21:00:00 11.7 10 Sudoeste 41 Oeste 0 -- -- 77
2019-11-26 20:00:00 11.5 18 Oeste 50 Oeste 0.6 -- -- 76
2019-11-26 19:00:00 11.8 20 Oeste 66 Oeste 3.2 -- -- 83
2019-11-26 18:00:00 16.4 23 Sudoeste 47 Sur 0 -- -- 60
2019-11-26 17:00:00 17.5 18 Oeste 53 Sudoeste 0 -- -- 61
2019-11-26 16:00:00 20.3 23 Sudoeste 52 Sudoeste 0 -- -- 41
2019-11-26 15:00:00 20.6 22 Sudoeste 46 Sur 0 -- -- 39
2019-11-26 14:00:00 20.3 26 Sudoeste 57 Sudoeste 0 -- -- 38
2019-11-26 13:00:00 20.3 21 Sudoeste 46 Sudoeste 0 -- -- 39
2019-11-26 12:00:00 19.8 10 Sudeste 40 Sudoeste 0 -- -- 54
2019-11-26 11:00:00 18.2 22 Sudoeste 48 Oeste 0 -- -- 54
2019-11-26 10:00:00 14.8 4 Este 8 Sur 0 -- -- 86
2019-11-26 09:00:00 13.1 2 Este 9 Norte 0 -- -- 90
2019-11-26 08:00:00 14.4 4 Noroeste 8 Sudeste 0 -- -- 85
2019-11-26 07:00:00 15.2 3 Noroeste 20 Sudoeste 0 -- -- 79
2019-11-26 06:00:00 16.7 8 Oeste 21 Oeste 0 -- -- 72
2019-11-26 05:00:00 16.7 6 Oeste 32 Oeste 0 -- -- 69
2019-11-26 04:00:00 16.4 19 Oeste 30 Oeste 0 -- -- 68
2019-11-26 03:00:00 10.3 5 Oeste 15 Noroeste 0 -- -- 90
2019-11-26 02:00:00 9.6 4 Sudoeste 11 Sudoeste 0 -- -- 93
2019-11-26 01:00:00 9.1 2 Nordeste 8 Este 0 -- -- 95
2019-11-26 00:00:00 9.2 4 Oeste 8 Sur 0 -- -- 97
2019-11-25 23:00:00 8.9 4 Este 8 Sudoeste 0 -- -- 96
2019-11-25 22:00:00 9.7 0 Calma 4 Sur 0 -- -- 95
2019-11-25 21:00:00 10.5 2 Noroeste 8 Nordeste 0 -- -- 92
2019-11-25 20:00:00 11.7 3 Este 8 Nordeste 0 -- -- 89
2019-11-25 19:00:00 12.8 4 Noroeste 13 Sur 0 -- -- 82
2019-11-25 18:00:00 14.6 4 Sudoeste 22 Oeste 0 -- -- 67
2019-11-25 17:00:00 15.4 11 Sudoeste 32 Oeste 0 -- -- 64
2019-11-25 16:00:00 15.6 13 Sudoeste 28 Sur 0 -- -- 64
2019-11-25 15:00:00 15.8 10 Oeste 31 Sudoeste 0 -- -- 63
2019-11-25 14:00:00 -- -- -- -- -- -- -- -- --
2019-11-25 13:00:00 -- -- -- -- -- -- -- -- --
2019-11-25 12:00:00 -- -- -- -- -- -- -- -- --
2019-11-25 11:00:00 -- -- -- -- -- -- -- -- --
2019-11-25 10:00:00 -- -- -- -- -- -- -- -- --
2019-11-25 09:00:00 -- -- -- -- -- -- -- -- --
2019-11-25 08:00:00 -- -- -- -- -- -- -- -- --
2019-11-25 07:00:00 -- -- -- -- -- -- -- -- --
2019-11-25 06:00:00 -- -- -- -- -- -- -- -- --
2019-11-25 05:00:00 -- -- -- -- -- -- -- -- --
2019-11-25 04:00:00 -- -- -- -- -- -- -- -- --
2019-11-25 03:00:00 -- -- -- -- -- -- -- -- --
2019-11-25 02:00:00 -- -- -- -- -- -- -- -- --
2019-11-25 01:00:00 -- -- -- -- -- -- -- -- --
2019-11-25 00:00:00 -- -- -- -- -- -- -- -- --
2019-11-24 23:00:00 -- -- -- -- -- -- -- -- --
2019-11-24 22:00:00 -- -- -- -- -- -- -- -- --
2019-11-24 21:00:00 -- -- -- -- -- -- -- -- --
2019-11-24 20:00:00 -- -- -- -- -- -- -- -- --
2019-11-24 19:00:00 -- -- -- -- -- -- -- -- --
2019-11-24 18:00:00 -- -- -- -- -- -- -- -- --
2019-11-24 17:00:00 -- -- -- -- -- -- -- -- --
2019-11-24 16:00:00 -- -- -- -- -- -- -- -- --
2019-11-24 15:00:00 -- -- -- -- -- -- -- -- --
2019-11-24 14:00:00 -- -- -- -- -- -- -- -- --
2019-11-24 13:00:00 -- -- -- -- -- -- -- -- --
2019-11-24 12:00:00 -- -- -- -- -- -- -- -- --
2019-11-24 11:00:00 -- -- -- -- -- -- -- -- --
2019-11-24 10:00:00 -- -- -- -- -- -- -- -- --
2019-11-24 09:00:00 -- -- -- -- -- -- -- -- --
2019-11-24 08:00:00 -- -- -- -- -- -- -- -- --
2019-11-24 07:00:00 -- -- -- -- -- -- -- -- --
2019-11-24 06:00:00 -- -- -- -- -- -- -- -- --
2019-11-24 05:00:00 -- -- -- -- -- -- -- -- --
2019-11-24 04:00:00 -- -- -- -- -- -- -- -- --
2019-11-24 03:00:00 -- -- -- -- -- -- -- -- --
2019-11-24 02:00:00 -- -- -- -- -- -- -- -- --
2019-11-24 01:00:00 -- -- -- -- -- -- -- -- --
2019-11-24 00:00:00 -- -- -- -- -- -- -- -- --
2019-11-23 23:00:00 -- -- -- -- -- -- -- -- --
2019-11-23 22:00:00 -- -- -- -- -- -- -- -- --
2019-11-23 21:00:00 -- -- -- -- -- -- -- -- --
2019-11-23 20:00:00 -- -- -- -- -- -- -- -- --
2019-11-23 19:00:00 -- -- -- -- -- -- -- -- --
2019-11-23 18:00:00 -- -- -- -- -- -- -- -- --
2019-11-23 17:00:00 -- -- -- -- -- -- -- -- --
2019-11-23 16:00:00 -- -- -- -- -- -- -- -- --
2019-11-23 15:00:00 -- -- -- -- -- -- -- -- --
2019-11-23 14:00:00 -- -- -- -- -- -- -- -- --
2019-11-23 13:00:00 -- -- -- -- -- -- -- -- --
2019-11-23 12:00:00 -- -- -- -- -- -- -- -- --
2019-11-23 11:00:00 -- -- -- -- -- -- -- -- --
2019-11-23 10:00:00 8.3 9 Sudoeste 23 Oeste 2.2 -- -- 94
2019-11-23 09:00:00 8 5 Oeste 30 Oeste 1.2 -- -- 91
2019-11-23 08:00:00 7.8 11 Sudoeste 25 Oeste 2.8 -- -- 94
2019-11-23 07:00:00 7.8 6 Oeste 37 Oeste 1 -- -- 93
2019-11-23 06:00:00 8.4 12 Sudoeste 37 Sudoeste 0 -- -- 86
2019-11-23 05:00:00 8.4 13 Sudoeste 52 Oeste 3.2 -- -- 87
2019-11-23 04:00:00 8.8 17 Sudoeste 57 Oeste 8.4 -- -- 93
2019-11-23 03:00:00 9.6 17 Sudoeste 44 Oeste 7.4 -- -- 92
2019-11-23 02:00:00 9.9 23 Sudoeste 58 Oeste 10.2 -- -- 90
2019-11-23 01:00:00 9.8 15 Sudoeste 41 Sudoeste 9.4 -- -- 92
2019-11-23 00:00:00 9.5 18 Sudoeste 29 Oeste 6 -- -- 92
2019-11-22 23:00:00 9.9 19 Sudoeste 45 Oeste 5.6 -- -- 89
2019-11-22 22:00:00 10.5 14 Oeste 28 Oeste 3.2 -- -- 88
2019-11-22 21:00:00 10.4 11 Sudoeste 31 Sudoeste 2 -- -- 89
2019-11-22 20:00:00 10.9 22 Sudoeste 41 Oeste 0 -- -- 83
2019-11-22 19:00:00 10.5 15 Sudoeste 29 Sudoeste 0.8 -- -- 83
2019-11-22 18:00:00 11.6 16 Sudoeste 45 Sudoeste 0 -- -- 72
2019-11-22 17:00:00 12.1 12 Sudoeste 39 Sudoeste 0 -- -- 73
2019-11-22 16:00:00 12.9 11 Oeste 45 Oeste 0 -- -- 75
2019-11-22 15:00:00 13.9 20 Oeste 43 Noroeste 0.2 -- -- 64
2019-11-22 14:00:00 14.5 15 Sudoeste 32 Oeste 0 -- -- 67
2019-11-22 13:00:00 14.4 20 Oeste 44 Sudoeste 0.6 -- -- 78
2019-11-22 12:00:00 14 5 Nordeste 9 Este 0 -- -- 79
2019-11-22 11:00:00 9.6 0 Calma 8 Oeste 0.6 -- -- 100
2019-11-22 10:00:00 8.4 3 Noroeste 15 Este 2.8 -- -- 95
2019-11-22 09:00:00 6.5 4 Este 7 Noroeste 0 -- -- 98
2019-11-22 08:00:00 5.9 3 Oeste 10 Sur 0 -- -- 98
2019-11-22 07:00:00 6.3 4 Sudoeste 8 Oeste 0.2 -- -- 98
2019-11-22 06:00:00 6.3 3 Norte 6 Nordeste 0 -- -- 99
2019-11-22 05:00:00 6.1 0 Calma 3 Oeste 0.6 -- -- 97
2019-11-22 04:00:00 6.1 2 Oeste 6 Nordeste 0 -- -- 95
2019-11-22 03:00:00 6.1 2 Noroeste 8 Nordeste 0 -- -- 92
2019-11-22 02:00:00 5.8 2 Sudoeste 6 Oeste 0 -- -- 91
2019-11-22 01:00:00 5.9 2 Norte 9 Norte 0 -- -- 90
2019-11-22 00:00:00 6.3 3 Oeste 7 Oeste 0 -- -- 86
2019-11-21 23:00:00 6.6 3 Sudoeste 13 Oeste 0 -- -- 84
2019-11-21 22:00:00 7 5 Sudoeste 11 Sudoeste 0 -- -- 84
2019-11-21 21:00:00 7.4 3 Noroeste 7 Norte 0 -- -- 79
2019-11-21 20:00:00 8.2 3 Norte 15 Sur 0 -- -- 80
2019-11-21 19:00:00 9.4 4 Sur 30 Oeste 0 -- -- 71
2019-11-21 18:00:00 10.1 5 Oeste 19 Noroeste 0 -- -- 66
2019-11-21 17:00:00 12.2 12 Sudoeste 26 Sudoeste 0 -- -- 57
2019-11-21 16:00:00 13.2 18 Sudoeste 42 Sudoeste 0 -- -- 55
2019-11-21 15:00:00 14 18 Sudoeste 35 Sur 0 -- -- 52
2019-11-21 14:00:00 13.3 22 Sudoeste 43 Sudoeste 0 -- -- 59
2019-11-21 13:00:00 12.9 22 Sudoeste 39 Sudoeste 0 -- -- 59
2019-11-21 12:00:00 12.3 19 Sudoeste 37 Sudoeste 0 -- -- 63
2019-11-21 11:00:00 10.3 17 Sudoeste 32 Oeste 0 -- -- 69
2019-11-21 10:00:00 10.3 13 Sudoeste 31 Sudoeste 0 -- -- 66
2019-11-21 09:00:00 8.6 13 Sudoeste 30 Oeste 0 -- -- 70
2019-11-21 08:00:00 8.6 14 Sudoeste 42 Oeste 0.2 -- -- 70
2019-11-21 07:00:00 7.5 11 Sudoeste 28 Sudoeste 0 -- -- 79
2019-11-21 06:00:00 7.5 7 Oeste 26 Oeste 0 -- -- 82
2019-11-21 05:00:00 7.6 9 Sudoeste 16 Sudoeste 0 -- -- 84
2019-11-21 04:00:00 7.9 5 Sudoeste 20 Sudoeste 0 -- -- 84
2019-11-21 03:00:00 8.5 9 Sudoeste 25 Noroeste 0 -- -- 81
2019-11-21 02:00:00 7.1 3 Oeste 11 Sur 0 -- -- 87
2019-11-21 01:00:00 7.3 5 Oeste 12 Oeste 0 -- -- 85
2019-11-21 00:00:00 7.5 4 Oeste 17 Sudoeste 0 -- -- 84
2019-11-20 23:00:00 8.3 5 Sudoeste 19 Sudoeste 0 -- -- 82
2019-11-20 22:00:00 9.1 8 Sudoeste 28 Oeste 0 -- -- 79
2019-11-20 21:00:00 9.4 11 Sudoeste 25 Sur 0 -- -- 77
2019-11-20 20:00:00 9.5 14 Sudoeste 27 Sudoeste 0 -- -- 78
2019-11-20 19:00:00 8.8 5 Sudoeste 9 Oeste 0 -- -- 91
2019-11-20 18:00:00 9.8 2 Oeste 8 Noroeste 0 -- -- 89
2019-11-20 17:00:00 12.2 2 Nordeste 8 Sudeste 0 -- -- 78
2019-11-20 16:00:00 13.2 3 Nordeste 5 Este 0 -- -- 84
2019-11-20 15:00:00 10.5 0 Calma 4 Este 0 -- -- 91
2019-11-20 14:00:00 9.2 2 Sudoeste 4 Sudoeste 0 -- -- 96
2019-11-20 13:00:00 8.6 2 Sudoeste 4 Sur 0 -- -- 97
2019-11-20 12:00:00 7.8 0 Calma 6 Sudoeste 0 -- -- 99
2019-11-20 11:00:00 7 2 Sur 5 Este 0 -- -- 100
2019-11-20 10:00:00 4.9 0 Calma 6 Sudoeste 0 -- -- 100
2019-11-20 09:00:00 4.2 2 Oeste 5 Oeste 0 -- -- 100
2019-11-20 08:00:00 4.4 3 Nordeste 5 Este 0 -- -- 100
2019-11-20 07:00:00 5.1 2 Oeste 8 Oeste 0 -- -- 100
2019-11-20 06:00:00 5.6 0 Calma 5 Nordeste 0 -- -- 100
2019-11-20 05:00:00 6.5 0 Calma 8 Nordeste 0 -- -- 100
2019-11-20 04:00:00 6.6 0 Calma 6 Nordeste 0 -- -- 100
2019-11-20 03:00:00 7.1 3 Norte 8 Nordeste 0 -- -- 100
2019-11-20 02:00:00 7.3 3 Noroeste 6 Noroeste 0 -- -- 100
2019-11-20 01:00:00 7.1 0 Calma 5 Oeste 0 -- -- 100
2019-11-20 00:00:00 7.1 0 Calma 4 Sudoeste 0 -- -- 99
2019-11-19 23:00:00 7.9 2 Oeste 5 Oeste 0.2 -- -- 100
2019-11-19 22:00:00 8.1 0 Calma 5 Oeste 0.6 -- -- 99
2019-11-19 21:00:00 8.3 0 Calma 5 Sudeste 0 -- -- 99
2019-11-19 20:00:00 8.4 0 Calma 6 Norte 0 -- -- 98
2019-11-19 19:00:00 8.9 5 Nordeste 10 Noroeste 0 -- -- 96
2019-11-19 18:00:00 9.6 2 Noroeste 4 Norte 0 -- -- 91
2019-11-19 17:00:00 10.4 2 Norte 4 Oeste 0 -- -- 90
2019-11-19 16:00:00 10.9 2 Este 4 Este 0 -- -- 83
2019-11-19 15:00:00 11.4 3 Sudoeste 5 Sur 0 -- -- 73
2019-11-19 14:00:00 11.3 0 Calma 5 Sur 0 -- -- 73
2019-11-19 13:00:00 10.1 2 Oeste 6 Sudoeste 0 -- -- 81
2019-11-19 12:00:00 8 2 Sudoeste 6 Sudoeste 0 -- -- 87
2019-11-19 11:00:00 5.3 4 Sudoeste 7 Sudoeste 0 -- -- 93
2019-11-19 10:00:00 4 2 Sudoeste 6 Sudoeste 0 -- -- 97
2019-11-19 09:00:00 2.6 2 Oeste 8 Oeste 0 -- -- 99
2019-11-19 08:00:00 2.5 5 Oeste 9 Oeste 0 -- -- 100
2019-11-19 07:00:00 2.3 0 Calma 7 Oeste 0 -- -- 99
2019-11-19 06:00:00 2.8 2 Oeste 7 Norte 0 -- -- 100
2019-11-19 05:00:00 2.9 0 Calma 5 Oeste 0 -- -- 100
2019-11-19 04:00:00 3.1 2 Oeste 5 Oeste 0 -- -- 100
2019-11-19 03:00:00 3.6 2 Oeste 5 Oeste 0 -- -- 100
2019-11-19 02:00:00 3.5 3 Oeste 4 Oeste 0 -- -- 100
2019-11-19 01:00:00 3.7 0 Calma 3 Norte 0 -- -- 100
2019-11-19 00:00:00 4.4 0 Calma 5 Norte 0 -- -- 100
2019-11-18 23:00:00 5.2 3 Nordeste 5 Sudoeste 0 -- -- 97
2019-11-18 22:00:00 6.8 5 Sudoeste 9 Oeste 0 -- -- 96
2019-11-18 21:00:00 6.7 0 Calma 4 Oeste 0 -- -- 98
2019-11-18 20:00:00 6.8 0 Calma 3 Norte 0 -- -- 99
2019-11-18 19:00:00 7.1 2 Sur 7 Noroeste 0 -- -- 97
2019-11-18 18:00:00 8 3 Norte 5 Norte 0 -- -- 95
2019-11-18 17:00:00 8.9 0 Calma 9 Oeste 0 -- -- 93
2019-11-18 16:00:00 9 4 Sudoeste 12 Sudoeste 0.6 -- -- 92
2019-11-18 15:00:00 9.4 4 Nordeste 12 Sur 0.6 -- -- 93
2019-11-18 14:00:00 9.4 3 Sudoeste 7 Sudoeste 0.2 -- -- 92
2019-11-18 13:00:00 9.1 2 Sur 13 Sur 0.4 -- -- 91
2019-11-18 12:00:00 9.4 12 Sudoeste 19 Sur 0 -- -- 86
2019-11-18 11:00:00 7.9 5 Sudoeste 12 Sur 0 -- -- 96
2019-11-18 10:00:00 6.6 4 Sur 10 Sur 0.4 -- -- 100
2019-11-18 09:00:00 6.3 0 Calma 15 Sudoeste 0.6 -- -- 100
2019-11-18 08:00:00 6.3 5 Sudoeste 14 Oeste 4.8 -- -- 100
2019-11-18 07:00:00 6.4 3 Sur 9 Sudoeste 4 -- -- 100
2019-11-18 06:00:00 6.3 3 Sudoeste 13 Sudoeste 0.4 -- -- 100
2019-11-18 05:00:00 6.4 3 Sudoeste 9 Sudoeste 1 -- -- 100
2019-11-18 04:00:00 6.7 6 Nordeste 18 Sudoeste 1.4 -- -- 100
2019-11-18 03:00:00 6.8 6 Nordeste 12 Nordeste 2.8 -- -- 100
2019-11-18 02:00:00 6.8 3 Norte 11 Sudoeste 2.6 -- -- 100
2019-11-18 01:00:00 6.8 3 Oeste 8 Nordeste 0.4 -- -- 100
2019-11-18 00:00:00 6.9 3 Oeste 8 Oeste 1 -- -- 99
2019-11-17 23:00:00 7 4 Noroeste 11 Norte 3.2 -- -- 99
2019-11-17 22:00:00 6.9 4 Sudoeste 9 Sudoeste 1.4 -- -- 99
2019-11-17 21:00:00 7.2 6 Oeste 12 Oeste 4.2 -- -- 98
2019-11-17 20:00:00 7.3 3 Oeste 12 Oeste 4.4 -- -- 96
2019-11-17 19:00:00 7.4 6 Norte 26 Oeste 3.2 -- -- 96
2019-11-17 18:00:00 -- -- -- -- -- 1.8 -- -- --
2019-11-17 17:00:00 8.7 9 Sudoeste 34 Oeste 3 -- -- 90
2019-11-17 16:00:00 12 13 Sudoeste 37 Oeste 0 -- -- 66
2019-11-17 15:00:00 11.4 14 Sudoeste 30 Sudoeste 0.2 -- -- 71
2019-11-17 14:00:00 9.1 15 Sudoeste 42 Oeste 1.2 -- -- 86
2019-11-17 13:00:00 10.3 13 Oeste 29 Noroeste 0.4 -- -- 84
2019-11-17 12:00:00 9.5 13 Oeste 27 Sudoeste 0.6 -- -- 88
2019-11-17 11:00:00 9.7 4 Norte 25 Oeste 0 -- -- 91
2019-11-17 10:00:00 9.4 9 Sudoeste 28 Sudoeste 0.4 -- -- 90
2019-11-17 09:00:00 9.7 9 Oeste 33 Oeste 0.2 -- -- 93
2019-11-17 08:00:00 9.8 11 Sudoeste 23 Sudoeste 0.4 -- -- 95
2019-11-17 07:00:00 9.4 7 Sudoeste 21 Oeste 0 -- -- 93
2019-11-17 06:00:00 8.9 5 Sudoeste 23 Sur 0.4 -- -- 93
2019-11-17 05:00:00 9.2 9 Sudoeste 26 Oeste 0 -- -- 88
2019-11-17 04:00:00 9.2 15 Oeste 34 Oeste 1.2 -- -- 89
2019-11-17 03:00:00 10 15 Oeste 30 Oeste 0 -- -- 78
2019-11-17 02:00:00 8.8 8 Sudoeste 31 Sudoeste 0 -- -- 80
2019-11-17 01:00:00 8.8 9 Sudoeste 34 Oeste 0 -- -- 79
2019-11-17 00:00:00 8.8 14 Sudoeste 31 Oeste 0 -- -- 78
2019-11-16 23:00:00 8.3 13 Oeste 28 Oeste 0 -- -- 79
2019-11-16 22:00:00 8.1 7 Sudoeste 21 Oeste 0 -- -- 77
2019-11-16 21:00:00 7.8 8 Sudoeste 26 Sudeste 0 -- -- 78
2019-11-16 20:00:00 7.7 6 Sudoeste 22 Oeste 0 -- -- 78
2019-11-16 19:00:00 7.6 8 Oeste 22 Oeste 0 -- -- 78
2019-11-16 18:00:00 8.1 14 Oeste 27 Oeste 0 -- -- 75
2019-11-16 17:00:00 8.9 11 Oeste 31 Sudoeste 0 -- -- 73
2019-11-16 16:00:00 9.4 11 Sudoeste 27 Sudoeste 0.2 -- -- 73
2019-11-16 15:00:00 9.6 9 Oeste 29 Oeste 0 -- -- 73
2019-11-16 14:00:00 10.3 9 Sudoeste 27 Oeste 0 -- -- 74
2019-11-16 13:00:00 8.1 15 Oeste 30 Noroeste 0.8 -- -- 86
2019-11-16 12:00:00 8 12 Sudoeste 28 Sudoeste 0.4 -- -- 88
2019-11-16 11:00:00 7.1 14 Sudoeste 23 Sudoeste 0.2 -- -- 91
2019-11-16 10:00:00 5.5 3 Este 10 Sudoeste 0.4 -- -- 97
2019-11-16 09:00:00 4 2 Sudoeste 10 Sur 0.6 -- -- 99
2019-11-16 08:00:00 3.7 5 Sur 14 Oeste 0.4 -- -- 98
2019-11-16 07:00:00 3.7 3 Norte 13 Sudoeste 0.6 -- -- 98
2019-11-16 06:00:00 3.6 5 Sudoeste 16 Sur 0.2 -- -- 97
2019-11-16 05:00:00 4 7 Sudoeste 15 Sur 0.2 -- -- 97
2019-11-16 04:00:00 3.6 0 Calma 18 Sudoeste 1.2 -- -- 99
2019-11-16 03:00:00 3.4 6 Oeste 15 Sudoeste 0.2 -- -- 99
2019-11-16 02:00:00 3.5 6 Sur 22 Sudoeste 7 -- -- 99
2019-11-16 01:00:00 3.6 10 Sudoeste 16 Sudoeste 0.8 -- -- 97
2019-11-16 00:00:00 3.6 8 Oeste 17 Sudeste 0.8 -- -- 99
2019-11-15 23:00:00 3.3 5 Sudoeste 18 Sudoeste 1.6 -- -- 99
2019-11-15 22:00:00 -- 4 Este 16 Oeste 3 -- -- --
2019-11-15 21:00:00 3 4 Oeste 10 Nordeste 2.2 -- -- 100
2019-11-15 20:00:00 2.9 3 Oeste 16 Sudoeste 3.2 -- -- 98
2019-11-15 19:00:00 2.9 8 Sudoeste 18 Oeste 5.8 -- -- 98
2019-11-15 18:00:00 2.8 6 Oeste 21 Sudoeste 2 -- -- 98
2019-11-15 17:00:00 2.9 8 Sudoeste 27 Sudoeste 3 -- -- 95
2019-11-15 16:00:00 4.5 9 Sudoeste 20 Sudoeste 0.8 -- -- 96
2019-11-15 15:00:00 4.4 5 Sur 22 Sudoeste 1.4 -- -- 96
2019-11-15 14:00:00 4.5 13 Sudoeste 26 Sudeste 4.6 -- -- 97
2019-11-15 13:00:00 4.2 10 Sudoeste 22 Sudoeste 1.8 -- -- 97
2019-11-15 12:00:00 2.5 6 Sur 24 Sudoeste 9.8 -- -- 97
2019-11-15 11:00:00 3.8 15 Sudoeste 29 Sudoeste 9 -- -- 95
2019-11-15 10:00:00 4.6 3 Oeste 21 Sudoeste 5.2 -- -- 98
2019-11-15 09:00:00 5.7 9 Sudoeste 23 Sur 1.4 -- -- 93
2019-11-15 08:00:00 6.8 9 Sudoeste 23 Oeste 0.8 -- -- 87
2019-11-15 07:00:00 7.2 5 Este 21 Noroeste 0.8 -- -- 84
2019-11-15 06:00:00 6.7 6 Noroeste 30 Sudoeste 3.2 -- -- 88
2019-11-15 05:00:00 5.8 5 Este 19 Sudoeste 4.6 -- -- 94
2019-11-15 04:00:00 5.3 6 Sudoeste 24 Oeste 9.4 -- -- 94
2019-11-15 03:00:00 4.8 9 Sudoeste 29 Sudeste 5.8 -- -- 95
2019-11-15 02:00:00 4.7 6 Sudoeste 23 Oeste 6.4 -- -- 96
2019-11-15 01:00:00 6.2 3 Sudeste 22 Sudoeste 2.2 -- -- 92
2019-11-15 00:00:00 5.8 4 Noroeste 13 Sudoeste 4.8 -- -- 95
2019-11-14 23:00:00 6.6 4 Norte 21 Norte 4.6 -- -- 89
2019-11-14 22:00:00 6.8 5 Sur 26 Sudeste 3.4 -- -- 92
2019-11-14 21:00:00 7.2 5 Noroeste 20 Nordeste 5 -- -- 90
2019-11-14 20:00:00 7.4 6 Este 26 Noroeste 2 -- -- 88
2019-11-14 19:00:00 7.5 5 Sudoeste 19 Noroeste 1.6 -- -- 86
2019-11-14 18:00:00 6.6 3 Sudeste 16 Nordeste 2 -- -- 95
2019-11-14 17:00:00 7.1 7 Norte 19 Norte 4.4 -- -- 91
2019-11-14 16:00:00 5.3 7 Sudoeste 23 Sudoeste 1.8 -- -- 97
2019-11-14 15:00:00 5.1 13 Sudoeste 22 Sur 0.4 -- -- 95
2019-11-14 14:00:00 4.1 10 Sudoeste 45 Sudoeste 4 -- -- 94
2019-11-14 13:00:00 6.8 25 Sudoeste 45 Sudoeste 0 -- -- 79
2019-11-14 12:00:00 6.2 23 Sudoeste 48 Sudoeste 0.2 -- -- 81
2019-11-14 11:00:00 6.3 22 Sudoeste 48 Sudoeste 0 -- -- 79
2019-11-14 10:00:00 6.4 22 Sudoeste 44 Sudoeste 0 -- -- 74
2019-11-14 09:00:00 5.4 14 Sudoeste 30 Sur 0.2 -- -- 79
2019-11-14 08:00:00 5.3 12 Oeste 33 Oeste 0.4 -- -- 81
2019-11-14 07:00:00 5.7 15 Sudoeste 46 Sudoeste 0 -- -- 78
2019-11-14 06:00:00 5.6 20 Sudoeste 37 Oeste 0 -- -- 79
2019-11-14 05:00:00 6.2 16 Oeste 39 Oeste 0.2 -- -- 78
2019-11-14 04:00:00 5.6 21 Sudoeste 36 Oeste 1 -- -- 85
2019-11-14 03:00:00 5.3 10 Sudoeste 42 Oeste 3 -- -- 90
2019-11-14 02:00:00 6.5 10 Sudoeste 48 Sudoeste 3.6 -- -- 90
2019-11-14 01:00:00 6.9 8 Sudoeste 40 Oeste 4.4 -- -- 92
2019-11-14 00:00:00 8.3 13 Sudoeste 27 Noroeste 3 -- -- 92
2019-11-13 23:00:00 8.9 12 Sudoeste 43 Oeste 7.6 -- -- 92
2019-11-13 22:00:00 10 15 Oeste 42 Sudoeste 2.2 -- -- 85
2019-11-13 21:00:00 12 15 Sudoeste 37 Sudoeste 0 -- -- 69
2019-11-13 20:00:00 12.5 18 Oeste 44 Oeste 0 -- -- 66
2019-11-13 19:00:00 12.4 22 Oeste 48 Oeste 0 -- -- 66
2019-11-13 18:00:00 12 15 Oeste 31 Noroeste 0 -- -- 69
2019-11-13 17:00:00 12.4 16 Oeste 34 Oeste 0 -- -- 67
2019-11-13 16:00:00 12.8 13 Oeste 25 Oeste 0 -- -- 78
2019-11-13 15:00:00 11.6 13 Noroeste 28 Oeste 0 -- -- 81
2019-11-13 14:00:00 11.3 9 Oeste 26 Oeste 0 -- -- 82
2019-11-13 13:00:00 11.9 11 Oeste 21 Sudoeste 0 -- -- 85
2019-11-13 12:00:00 11.2 3 Sur 7 Sudeste 0.2 -- -- 95
2019-11-13 11:00:00 11.1 3 Sudeste 4 Sur 0 -- -- 99
2019-11-13 10:00:00 9.8 0 Calma 5 Sudoeste 0.2 -- -- 100
2019-11-13 09:00:00 9.5 0 Calma 3 Sudoeste 0.4 -- -- 100
2019-11-13 08:00:00 9.5 2 Oeste 9 Norte 0.4 -- -- 99
2019-11-13 07:00:00 9.7 5 Norte 19 Nordeste 1.6 -- -- 98
2019-11-13 06:00:00 10.2 11 Nordeste 22 Nordeste 3.4 -- -- 99
2019-11-13 05:00:00 10.4 6 Nordeste 14 Nordeste 2 -- -- 99
2019-11-13 04:00:00 10.6 4 Norte 12 Nordeste 0.8 -- -- 99
2019-11-13 03:00:00 10.7 4 Nordeste 19 Nordeste 1.4 -- -- 99
2019-11-13 02:00:00 11.2 12 Nordeste 22 Nordeste 2.2 -- -- 99
2019-11-13 01:00:00 11.7 4 Nordeste 10 Norte 4 -- -- 100
2019-11-13 00:00:00 12 4 Noroeste 15 Norte 8.6 -- -- 99
2019-11-12 23:00:00 12.4 4 Nordeste 13 Norte 5.8 -- -- 100
2019-11-12 22:00:00 12.3 6 Oeste 22 Oeste 3.2 -- -- 100
2019-11-12 21:00:00 12.1 10 Sudoeste 21 Oeste 4.4 -- -- 100
2019-11-12 20:00:00 12.1 13 Sudoeste 24 Oeste 4.6 -- -- 98
2019-11-12 19:00:00 12.2 11 Oeste 26 Sudoeste 2.8 -- -- 94
2019-11-12 18:00:00 11.8 11 Sudoeste 24 Oeste 4.2 -- -- 92
2019-11-12 17:00:00 11.5 12 Sudoeste 34 Oeste 3.8 -- -- 92
2019-11-12 16:00:00 11 4 Noroeste 10 Sudeste 2.2 -- -- 94
2019-11-12 15:00:00 11.5 3 Sudoeste 21 Sudoeste 0.8 -- -- 90
2019-11-12 14:00:00 11.3 11 Sudoeste 25 Oeste 0.2 -- -- 84
2019-11-12 13:00:00 10.9 10 Sudoeste 31 Sur 0.4 -- -- 84
2019-11-12 12:00:00 11.2 12 Sudoeste 31 Sur 0 -- -- 79
2019-11-12 11:00:00 11 13 Sudoeste 27 Sudoeste 0 -- -- 78
2019-11-12 10:00:00 9.5 9 Oeste 22 Oeste 0 -- -- 88
2019-11-12 09:00:00 8.7 12 Oeste 21 Oeste 0.2 -- -- 88
2019-11-12 08:00:00 8.5 6 Oeste 17 Oeste 0.4 -- -- 88
2019-11-12 07:00:00 8.7 13 Oeste 24 Oeste 0 -- -- 85
2019-11-12 06:00:00 9 15 Oeste 26 Oeste 0.2 -- -- 83
2019-11-12 05:00:00 8.8 14 Oeste 28 Oeste 0.2 -- -- 84
2019-11-12 04:00:00 8.9 13 Oeste 26 Oeste 0 -- -- 83
2019-11-12 03:00:00 7.9 13 Sudoeste 21 Sudoeste 0 -- -- 92
2019-11-12 02:00:00 8.3 6 Oeste 25 Oeste 0.2 -- -- 92
2019-11-12 01:00:00 8.9 17 Oeste 30 Oeste 0 -- -- 85
2019-11-12 00:00:00 7.4 0 Calma 9 Sudoeste 0 -- -- 98
2019-11-11 23:00:00 7.4 2 Nordeste 8 Este 0.4 -- -- 98
2019-11-11 22:00:00 7.6 2 Oeste 6 Nordeste 0.2 -- -- 98
2019-11-11 21:00:00 7.8 5 Oeste 10 Oeste 0 -- -- 96
2019-11-11 20:00:00 8 2 Norte 9 Oeste 0 -- -- 94
2019-11-11 19:00:00 8.9 5 Noroeste 10 Oeste 0 -- -- 90
2019-11-11 18:00:00 9.5 4 Noroeste 9 Noroeste 0 -- -- 86
2019-11-11 17:00:00 10.4 2 Oeste 9 Norte 0.2 -- -- 90
2019-11-11 16:00:00 10.9 4 Noroeste 10 Noroeste 0 -- -- 84
2019-11-11 15:00:00 11.8 2 Nordeste 10 Oeste 0 -- -- 78
2019-11-11 14:00:00 12.7 4 Norte 17 Oeste 0 -- -- 73
2019-11-11 13:00:00 11.3 0 Calma 15 Oeste 0.6 -- -- 90
2019-11-11 12:00:00 11 3 Norte 10 Sudoeste 0.2 -- -- 91
2019-11-11 11:00:00 11 4 Norte 14 Nordeste 0.6 -- -- 92
2019-11-11 10:00:00 11.2 3 Norte 17 Nordeste 0.6 -- -- 92
2019-11-11 09:00:00 11.5 3 Oeste 11 Sur 0.8 -- -- 100
2019-11-11 08:00:00 11.1 4 Noroeste 14 Sudoeste 1.6 -- -- 100
2019-11-11 07:00:00 10.7 6 Sudoeste 27 Sur 2.2 -- -- 100
2019-11-11 06:00:00 10.5 16 Sudoeste 29 Sudoeste 1.8 -- -- 99
2019-11-11 05:00:00 10 10 Sudoeste 22 Sudoeste 1 -- -- 98
2019-11-11 04:00:00 9 2 Sudeste 15 Sudoeste 0.2 -- -- 97
2019-11-11 03:00:00 8.8 9 Sudoeste 16 Sudoeste 0 -- -- 89
2019-11-11 02:00:00 8.1 3 Noroeste 14 Sur 0.2 -- -- 94
2019-11-11 01:00:00 7.8 3 Noroeste 22 Sudoeste 0 -- -- 92
2019-11-11 00:00:00 7.3 5 Nordeste 27 Sur 0 -- -- 93